Nadunumu Airport

NDN · Northern Province, Papua-Nowa Gwinea

Historia METAR NDN · Nadunumu Airport

Poniżej widzisz METAR-y z ostatnich kilku dni. Wybierz rok, aby przeglądać starsze METAR-y, począwszy od roku 2007.

8 grudnia 2022

Czas Kod Pogoda Temp. Widoczność Sufit Wiatr METAR/SPECI
00:00
V
26 °C 10 km+ - 320° 320° 6 kt METAR AYPY 071400Z 32006KT 9999 SCT050 26/25 Q1007

7 grudnia 2022

Czas Kod Pogoda Temp. Widoczność Sufit Wiatr METAR/SPECI
23:00
V
26 °C 10 km+ - 320° 320° 5 kt METAR AYPY 071300Z 32005KT 9999 FEW010 SCT050 26/25 Q1007
22:00
V
26 °C 10 km+ - 310° 310° 8 kt METAR AYPY 071200Z 31008KT 9999 FEW010 26/25 Q1007=
21:00
V
26 °C 10 km+ - 310° 310° 6 kt METAR AYPY 071100Z 31006KT 9999 SCT050 26/25 Q1007
20:00
V
27 °C 10 km+ - Var Var 3 kt METAR AYPY 071000Z VRB03KT 9999 SCT070 27/26 Q1006
19:00
V
28 °C 10 km+ 4.000 ft 200° 200° 5 kt METAR AYPY 070900Z 20005KT 9999 FEW010 SCT020 BKN040 28/26 Q1005 RMK
18:00
M
27 °C 5 km 2.000 ft 170° 170° 5 - 10 kt METAR AYPY 070800Z 17005G10KT 5000 FEW010 BKN020 OVC030 27/26 Q1005 RMK
17:00
V
30 °C 10 km+ 3.000 ft 160° 160° 15 kt METAR AYPY 070700Z 16015KT 9999 HZ SCT025 BKN030 30/25 Q1004 RMK/CB IN AREA AND VIS REDUCED 6000 IN SHRA FM N TO SE
16:00
V
31 °C 10 km+ 3.000 ft 140° 140° 15 kt METAR AYPY 070600Z 14015KT 9999 HZ FEW010 BKN030 31/25 Q1004 RMK/CB IN AREA
15:00
V
33 °C 10 km+ - 180° 180° 10 - 15 kt METAR AYPY 070500Z 18010G15KT 9999 HZ FEW025 SCT030 33/24 Q1004 RMK/CB ASSW SHRA TO NE AND E
14:00
V
33 °C 10 km+ - 180° 180° 15 - 20 kt METAR AYPY 070400Z 18015G20KT 9999 HZ SCT030 33/24 Q1004
13:00
V
32 °C 10 km+ - 160° 160° 10 kt METAR AYPY 070300Z 16010KT 9999 SCT030 32/23 Q1005 RMK
12:00
V
32 °C 10 km+ - 140° 140° 10 kt METAR AYPY 070200Z 14010KT 9999 SCT030 SCT100 32/23 Q1006
11:00
V
31 °C 10 km+ - 170° 170° 10 kt METAR AYPY 070100Z 17010KT 9999 SCT030 SCT100 31/23 Q1007
10:00
V
32 °C 10 km+ - 170° 170° 10 kt METAR AYPY 070000Z 17010KT 9999 FEW030 SCT100 32/22 Q1008
08:00
V
28 °C 10 km+ - 300° 300° 5 kt METAR AYPY 062200Z 30005KT 9999 SCT050 28/24 Q1008
07:00
V
25 °C 10 km+ 10.000 ft 320° 320° 3 kt METAR AYPY 062100Z 32003KT 9999 BKN100 25/24 Q1008
06:00
V
24 °C 10 km+ - 340° 340° 5 kt METAR AYPY 062000Z 34005KT 9999 SCT050 24/23 Q1007
04:00
V
24 °C 10 km+ - Var Var 3 kt METAR AYPY 061800Z VRB03KT 9999 SCT050 24/24 Q1006
03:00
V
24 °C 10 km+ - Var Var 3 kt METAR AYPY 061700Z VRB03KT 9999 SCT050 24/23 Q1006
02:00
V
25 °C 10 km+ - Var Var 3 kt METAR AYPY 061600Z VRB03KT 9999 SCT050 25/24 Q1006
01:00
V
25 °C 10 km+ - Var Var 3 kt METAR AYPY 061500Z VRB03KT 9999 SCT050 25/24 Q1006
00:00
V
25 °C 10 km+ - Var Var 3 kt METAR AYPY 061400Z VRB03KT 9999 SCT050 25/24 Q1007

6 grudnia 2022

Czas Kod Pogoda Temp. Widoczność Sufit Wiatr METAR/SPECI
23:00
V
26 °C 10 km+ - 350° 350° 5 kt METAR AYPY 061300Z 35005KT 9999 SCT050 26/24 Q1007
22:00
V
26 °C 10 km+ - 310° 310° 5 kt METAR AYPY 061200Z 31005KT 9999 SCT050 26/24 Q1007
21:00
V
28 °C 10 km+ - 110° 110° 5 kt METAR AYPY 061100Z 11005KT 9999 SCT050 28/23 Q1007
20:00
V
28 °C 10 km+ - 140° 140° 10 - 15 kt METAR AYPY 061000Z 14010G15KT 9999 SCT050 28/24 Q1007
19:00
V
29 °C 10 km+ - 150° 150° 10 - 15 kt METAR AYPY 060900Z 15010G15KT 9999 SCT030 SCT050 29/23 Q1006
18:00
V
29 °C 10 km+ - 150° 150° 10 - 15 kt METAR AYPY 060800Z 15010G15KT 9999 SCT035 SCT050 29/23 Q1006 RMK/CB FM N TO E
17:00
V
30 °C 10 km+ - 150° 150° 10 - 18 kt METAR AYPY 060700Z 15010G18KT 9999 SCT035 SCT050 30/23 Q1005 RMK/CB FM NW TO E
16:00
V
31 °C 10 km+ - 150° 150° 10 - 18 kt METAR AYPY 060600Z 15010G18KT 9999 SCT030 SCT050 31/23 Q1005 RMK
15:00
V
31 °C 10 km+ - 150° 150° 10 - 16 kt METAR AYPY 060500Z 15010G16KT 9999 SCT030 SCT050 31/24 Q1004 RMK/CB TO NW AND E
14:00
V
32 °C 10 km+ - 160° 160° 10 - 17 kt METAR AYPY 060400Z 16010G17KT 9999 SCT030 SCT050 32/24 Q1005 RMK
13:00
V
32 °C 10 km+ - 160° 160° 15 kt METAR AYPY 060300Z 16015KT 9999 SCT030 SCT055 32/24 Q1006
12:00
V
32 °C 10 km+ - 170° 170° 10 kt METAR AYPY 060200Z 17010KT 9999 SCT030 32/24 Q1007
11:00
V
32 °C 10 km+ - 160° 160° 10 kt METAR AYPY 060100Z 16010KT 9999 SCT035 32/23 Q1008
10:00
V
30 °C 10 km+ - 150° 150° 10 kt METAR AYPY 060000Z 15010KT 9999 FEW030 30/23 Q1009
09:00
V
30 °C 10 km+ - Var Var 3 kt METAR AYPY 052300Z VRB03KT 9999 FEW050 30/22 Q1009
08:00
V
27 °C 10 km+ - Var Var 3 kt METAR AYPY 052200Z VRB03KT 9999 FEW100 27/23 Q1009
07:00
V
26 °C 10 km+ - Var Var 3 kt METAR AYPY 052100Z VRB03KT 9999 FEW100 26/23 Q1008
06:00
V
24 °C 10 km+ - Var Var 3 kt METAR AYPY 052000Z VRB03KT 9999 BCFG FEW050 24/23 Q1007=
05:00
V
24 °C 10 km+ - Var Var 3 kt METAR AYPY 051900Z VRB03KT 9999 FEW050 24/23 Q1007
04:00
V
24 °C 10 km+ - Var Var 3 kt METAR AYPY 051800Z VRB03KT 9999 FEW050 24/23 Q1006
03:00
V
24 °C 10 km+ - Var Var 3 kt METAR AYPY 051700Z VRB03KT 9999 FEW050 24/23 Q1006
02:00
V
24 °C 10 km+ - Var Var 3 kt METAR AYPY 051600Z VRB03KT 9999 FEW050 24/23 Q1006
01:00
V
25 °C 10 km+ - Var Var 3 kt METAR AYPY 051500Z VRB03KT 9999 FEW050 25/23 Q1007
00:00
V
25 °C 10 km+ - 160° 160° 5 kt METAR AYPY 051400Z 16005KT 9999 FEW050 25/23 Q1008

5 grudnia 2022

Czas Kod Pogoda Temp. Widoczność Sufit Wiatr METAR/SPECI
23:00
V
27 °C 10 km+ - 110° 110° 10 kt METAR AYPY 051300Z 11010KT 9999 FEW050 27/23 Q1008
22:00
V
27 °C 10 km+ - 100° 100° 10 kt METAR AYPY 051200Z 10010KT 9999 FEW050 27/23 Q1008
21:00
V
27 °C 10 km+ - 140° 140° 10 kt METAR AYPY 051100Z 14010KT 9999 FEW020 FEW050 27/24 Q1008=
20:00
V
27 °C 10 km+ - 140° 140° 10 kt METAR AYPY 051000Z 14010KT 9999 FEW020 FEW050 27/24 Q1008

My i strony trzecie śledzimy Twoje zachowanie internetowe na naszej stronie za pomocą plików cookie. Jeśli kontynuujesz, zakładamy, że zgadzasz się z naszymi polityka plików cookie.